Time;durP1;ratioP1;P1;durP2;ratioP2;P2;SDS_P1;SDS_P2;PMS_P1;PMS_P2;Temp;Humidity;BMP_temperature;BMP_pressure;BME280_temperature;BME280_humidity;BME280_pressure;Samples;Min_cycle;Max_cycle;Signal;HPM_P1;HPM_P2
2021/10/08 00:00:46;;;;;;;34.63;16.33;;;10.40;99.90;;;9.21;100.00;104667.19;4994339;28;20062;-78
2021/10/08 00:03:12;;;;;;;38.90;16.95;;;10.60;99.90;;;9.39;100.00;104704.38;5033792;28;20020;-78
2021/10/08 00:05:38;;;;;;;39.38;16.75;;;10.70;99.90;;;9.39;100.00;104711.41;5014249;28;20055;-78
2021/10/08 00:08:04;;;;;;;41.20;17.85;;;10.70;99.90;;;9.37;100.00;104684.16;5006299;28;20112;-78
2021/10/08 00:10:31;;;;;;;41.47;16.48;;;10.80;99.90;;;9.41;100.00;104722.84;4987858;28;20079;-78
2021/10/08 00:12:57;;;;;;;38.25;17.95;;;10.80;99.90;;;9.50;100.00;104737.94;5018501;28;20048;-78
2021/10/08 00:15:23;;;;;;;42.67;18.38;;;11.00;99.90;;;9.65;100.00;104772.47;5040733;28;20086;-78
2021/10/08 00:17:49;;;;;;;41.63;17.65;;;11.00;99.90;;;9.76;100.00;104756.94;5024156;28;20154;-78
2021/10/08 00:20:16;;;;;;;42.70;18.40;;;11.00;99.90;;;9.74;100.00;104788.50;5013769;28;20079;-78
2021/10/08 00:22:42;;;;;;;41.88;18.50;;;11.10;99.90;;;9.73;100.00;104846.38;5025732;28;20047;-78
2021/10/08 00:25:09;;;;;;;37.75;17.67;;;11.10;99.90;;;9.61;100.00;104846.94;5032762;28;20102;-78
2021/10/08 00:27:35;;;;;;;38.60;16.52;;;11.10;99.90;;;9.65;100.00;104854.06;4972784;28;20044;-78
2021/10/08 00:30:01;;;;;;;42.63;16.30;;;11.10;99.90;;;9.78;100.00;104921.97;5027568;28;20021;-78
2021/10/08 00:32:27;;;;;;;42.10;16.10;;;11.10;99.90;;;9.75;100.00;104944.69;5024779;28;20033;-78
2021/10/08 00:34:53;;;;;;;149.15;17.10;;;11.10;99.90;;;9.56;100.00;104910.00;5000688;28;20790;-78
2021/10/08 00:37:19;;;;;;;38.08;17.25;;;11.00;99.90;;;9.56;100.00;104965.25;4988870;28;20056;-78
2021/10/08 00:39:45;;;;;;;36.50;15.85;;;10.90;99.90;;;9.35;100.00;104828.84;4979133;28;20063;-78
2021/10/08 00:42:17;;;;;;;32.70;14.20;;;10.70;99.90;;;9.03;100.00;104785.97;4967588;28;21213;-78
2021/10/08 00:44:43;;;;;;;28.50;13.95;;;10.50;99.90;;;8.96;100.00;104757.72;4987964;28;20996;-78
2021/10/08 00:47:14;;;;;;;31.52;13.10;;;10.30;99.90;;;8.65;100.00;104717.56;5006313;28;20073;-78
2021/10/08 00:49:41;;;;;;;31.63;12.48;;;10.10;99.90;;;8.41;100.00;104691.56;5003332;28;20086;-78
2021/10/08 00:52:07;;;;;;;36.20;11.27;;;9.90;99.90;;;8.28;100.00;104663.16;4989925;28;20040;-78
2021/10/08 00:54:33;;;;;;;19.70;11.23;;;9.80;99.90;;;8.12;100.00;104660.16;4986564;28;20067;-77
2021/10/08 00:57:00;;;;;;;25.33;10.98;;;9.60;99.90;;;8.00;100.00;104638.81;5023666;28;20029;-78
2021/10/08 00:59:28;;;;;;;18.48;10.02;;;9.50;99.90;;;7.94;100.00;104626.41;5005631;28;20068;-78
2021/10/08 01:01:59;;;;;;;19.83;9.90;;;9.50;99.90;;;7.93;100.00;104619.38;4978535;28;20064;-78
2021/10/08 01:04:25;;;;;;;19.30;9.55;;;9.50;99.90;;;7.85;100.00;104613.03;5019547;28;20275;-78
2021/10/08 01:06:51;;;;;;;21.83;10.10;;;9.40;99.90;;;7.83;100.00;104606.84;5009983;28;20025;-77
2021/10/08 01:09:19;;;;;;;40.85;9.93;;;9.30;99.90;;;7.76;100.00;104603.19;5020907;28;20028;-78
2021/10/08 01:11:45;;;;;;;23.70;8.90;;;9.20;99.90;;;7.63;100.00;104585.34;5000718;28;20077;-78
2021/10/08 01:14:11;;;;;;;96.93;8.25;;;9.10;99.90;;;7.58;100.00;104564.22;4996610;28;20052;-78
2021/10/08 01:16:40;;;;;;;188.60;8.07;;;9.10;99.90;;;7.58;100.00;104553.75;5008628;28;20060;-78
2021/10/08 01:19:06;;;;;;;55.60;7.60;;;9.20;99.90;;;7.69;100.00;104561.91;4964222;28;20411;-78
2021/10/08 01:21:32;;;;;;;13.73;8.27;;;9.20;99.90;;;7.79;100.00;104584.88;4998546;28;20415;-78
2021/10/08 01:23:58;;;;;;;172.35;9.82;;;9.30;99.90;;;7.93;100.00;104581.78;5036470;28;20605;-78
2021/10/08 01:26:24;;;;;;;23.02;10.23;;;9.40;99.90;;;8.02;100.00;104576.75;5018197;28;20070;-78
2021/10/08 01:28:50;;;;;;;17.33;10.82;;;9.50;99.90;;;8.07;100.00;104563.72;5006896;28;20129;-78
2021/10/08 01:31:16;;;;;;;26.77;11.45;;;9.50;99.90;;;8.18;100.00;104576.25;5004971;28;20084;-77
2021/10/08 01:33:45;;;;;;;67.38;13.32;;;9.60;99.90;;;8.24;100.00;104582.53;5012454;28;20055;-78
2021/10/08 01:36:11;;;;;;;24.98;11.55;;;9.70;99.90;;;8.27;100.00;104577.34;5006389;28;20070;-78
2021/10/08 01:38:37;;;;;;;29.85;13.18;;;9.70;99.90;;;8.27;100.00;104578.25;5021627;28;20404;-78
2021/10/08 01:41:03;;;;;;;41.17;11.23;;;9.60;99.90;;;8.18;100.00;104552.63;4999392;28;20061;-78
2021/10/08 01:43:29;;;;;;;25.58;11.20;;;9.60;99.90;;;8.16;100.00;104548.19;5038425;28;20083;-78
2021/10/08 01:45:55;;;;;;;22.58;11.05;;;9.70;99.90;;;8.25;100.00;104569.47;5007329;28;20056;-78
2021/10/08 01:48:21;;;;;;;24.88;11.05;;;9.90;99.90;;;8.38;100.00;104592.53;5022859;28;20067;-78
2021/10/08 01:50:47;;;;;;;29.35;11.68;;;9.90;99.90;;;8.38;100.00;104591.63;5011601;28;20033;-78
2021/10/08 01:53:14;;;;;;;240.15;13.95;;;9.80;99.90;;;8.35;100.00;104592.44;5009966;28;20449;-78
2021/10/08 01:55:40;;;;;;;26.48;10.02;;;9.80;99.90;;;8.35;100.00;104576.69;5020847;28;20061;-77
2021/10/08 01:58:06;;;;;;;64.75;10.00;;;9.80;99.90;;;8.37;100.00;104571.47;5038157;28;20529;-78
2021/10/08 02:00:32;;;;;;;24.50;10.77;;;9.80;99.90;;;8.44;100.00;104586.56;5029231;28;20157;-78
2021/10/08 02:03:00;;;;;;;17.92;9.48;;;9.90;99.90;;;8.42;100.00;104577.75;5055446;28;20538;-78
2021/10/08 02:05:27;;;;;;;81.32;8.55;;;9.90;99.90;;;8.39;100.00;104568.03;5006193;28;20508;-78
2021/10/08 02:07:53;;;;;;;21.92;9.63;;;9.90;99.90;;;8.35;100.00;104566.19;5009196;28;20056;-78
2021/10/08 02:10:19;;;;;;;208.95;9.57;;;9.80;99.90;;;8.25;100.00;104555.41;5012271;28;20131;-78
2021/10/08 02:12:45;;;;;;;25.02;9.65;;;9.70;99.90;;;8.13;100.00;104540.25;5004163;28;20064;-77
2021/10/08 02:15:11;;;;;;;152.70;9.73;;;9.60;99.90;;;8.06;100.00;104530.47;4993637;28;20495;-78
2021/10/08 02:17:37;;;;;;;19.77;9.23;;;9.60;99.90;;;8.05;100.00;104542.69;5008044;28;20048;-78
2021/10/08 02:20:04;;;;;;;21.38;9.52;;;;;;;8.11;100.00;104549.84;4965023;28;20059;-78
2021/10/08 02:22:30;;;;;;;18.58;9.02;;;;;;;8.09;100.00;104546.28;5017306;28;20420;-78
2021/10/08 02:24:57;;;;;;;23.45;9.55;;;;;;;8.09;100.00;104548.91;5033288;28;20068;-78
2021/10/08 02:27:23;;;;;;;18.42;10.25;;;9.60;99.90;;;8.15;100.00;104562.19;5010910;28;20059;-78
2021/10/08 02:29:49;;;;;;;18.88;9.38;;;9.70;99.90;;;8.26;100.00;104575.59;5008288;28;20067;-78
2021/10/08 02:32:15;;;;;;;26.48;10.02;;;9.80;99.90;;;8.31;100.00;104580.09;4997906;28;20101;-78
2021/10/08 02:34:41;;;;;;;19.10;10.95;;;9.90;99.90;;;8.43;100.00;104603.19;5018366;28;20063;-78
2021/10/08 02:37:07;;;;;;;15.82;8.25;;;10.00;99.90;;;8.49;100.00;104605.97;5022839;28;20331;-78
2021/10/08 02:39:35;;;;;;;15.55;8.70;;;10.00;99.90;;;8.57;100.00;104624.50;5012762;28;20085;-78
2021/10/08 02:42:02;;;;;;;16.80;8.18;;;10.10;99.90;;;8.57;100.00;104620.19;5027476;28;20538;-78
2021/10/08 02:44:28;;;;;;;15.80;9.23;;;10.10;99.90;;;8.62;100.00;104622.91;5024226;28;20424;-78
2021/10/08 02:46:54;;;;;;;17.65;9.10;;;10.20;99.90;;;8.69;100.00;104623.94;5011858;28;20052;-78
2021/10/08 02:49:21;;;;;;;20.70;10.10;;;10.20;99.90;;;8.73;100.00;104642.44;4971549;28;20582;-78
2021/10/08 02:51:50;;;;;;;17.83;9.52;;;10.20;99.90;;;8.79;100.00;104639.97;5008032;28;20148;-78
2021/10/08 02:54:16;;;;;;;20.10;9.75;;;10.30;99.90;;;8.85;100.00;104644.44;5032601;28;20059;-78
2021/10/08 02:56:43;;;;;;;17.45;9.63;;;10.40;99.90;;;8.90;100.00;104648.09;4997066;28;20072;-78
2021/10/08 02:59:09;;;;;;;22.80;9.68;;;10.40;99.90;;;8.95;100.00;104658.72;4975787;28;20056;-78
2021/10/08 03:01:35;;;;;;;19.40;9.57;;;10.40;99.90;;;8.97;100.00;104655.25;5030493;28;20685;-78
2021/10/08 03:04:03;;;;;;;20.70;9.68;;;10.50;99.90;;;9.02;100.00;104661.50;5023883;28;20052;-78
2021/10/08 03:06:32;;;;;;;22.85;9.65;;;10.60;99.90;;;9.14;100.00;104668.78;5016673;28;20136;-78
2021/10/08 03:08:58;;;;;;;20.60;10.38;;;10.70;99.90;;;9.19;100.00;104668.88;5022744;28;20473;-78
2021/10/08 03:11:25;;;;;;;22.67;10.00;;;10.80;99.90;;;9.30;100.00;104684.91;5001370;28;20037;-78
2021/10/08 03:13:51;;;;;;;27.35;11.00;;;10.80;99.90;;;9.37;100.00;104687.72;5023286;28;20525;-78
2021/10/08 03:16:17;;;;;;;28.10;10.60;;;10.90;99.90;;;9.41;100.00;104683.38;5026961;28;20018;-78
2021/10/08 03:18:46;;;;;;;24.45;10.38;;;10.90;99.90;;;9.39;100.00;104682.47;5030980;28;20411;-78
2021/10/08 03:21:12;;;;;;;19.40;9.82;;;10.80;99.90;;;9.38;100.00;104675.44;5040710;28;20407;-78
2021/10/08 03:23:38;;;;;;;22.42;10.00;;;10.80;99.90;;;9.32;100.00;104677.94;4989151;28;20036;-78
2021/10/08 03:26:04;;;;;;;21.70;10.00;;;10.80;99.90;;;9.24;100.00;104672.50;5015494;28;20066;-78
2021/10/08 03:28:30;;;;;;;23.30;10.23;;;10.60;99.90;;;9.12;100.00;104652.09;5030382;28;20056;-78
2021/10/08 03:30:56;;;;;;;22.95;9.63;;;10.50;99.90;;;9.06;100.00;104644.06;5025366;28;20412;-78
2021/10/08 03:33:27;;;;;;;19.45;9.27;;;10.50;99.90;;;9.00;100.00;104639.53;4976513;28;20680;-78
2021/10/08 03:35:53;;;;;;;23.60;9.73;;;10.60;99.90;;;9.05;100.00;104647.56;5008167;28;20489;-78
2021/10/08 03:38:20;;;;;;;28.02;10.32;;;10.60;99.90;;;9.17;100.00;104682.00;4999842;28;20095;-78
2021/10/08 03:43:22;;;;;;;;;;;10.70;99.90;;;9.31;100.00;104684.03;5038036;28;20063;-78
2021/10/08 03:45:49;;;;;;;25.80;9.93;;;;;;;9.37;100.00;104692.06;5024532;28;20287;-78
2021/10/08 03:48:33;;;;;;;23.25;10.25;;;10.90;99.90;;;9.55;100.00;104710.00;5045424;28;20063;-78
2021/10/08 03:51:03;;;;;;;24.33;10.48;;;10.80;99.90;;;9.57;100.00;104703.91;5000339;28;20465;-78
2021/10/08 03:53:31;;;;;;;25.30;11.13;;;11.00;99.90;;;9.55;100.00;104695.09;5010972;28;20597;-78
2021/10/08 03:55:58;;;;;;;21.52;10.18;;;11.00;99.90;;;9.53;100.00;104681.03;5017008;28;20125;-78
2021/10/08 03:58:24;;;;;;;29.38;10.68;;;11.00;99.90;;;9.51;100.00;104677.47;5016250;28;20545;-78
2021/10/08 04:00:53;;;;;;;23.42;10.93;;;11.00;99.90;;;9.59;100.00;104683.78;5016025;28;20102;-78
2021/10/08 04:03:19;;;;;;;22.20;9.43;;;11.00;99.90;;;9.58;100.00;104679.38;4984150;28;20062;-78
2021/10/08 04:05:45;;;;;;;19.10;10.02;;;11.00;99.90;;;9.57;100.00;104687.25;5002642;28;20109;-78
2021/10/08 04:08:11;;;;;;;21.08;10.85;;;11.00;99.90;;;9.56;100.00;104695.97;5015680;28;20049;-78
2021/10/08 04:10:37;;;;;;;18.42;10.07;;;11.50;99.90;;;9.53;100.00;104680.16;4969166;28;20079;-78
2021/10/08 04:13:03;;;;;;;27.52;10.30;;;11.00;99.90;;;9.56;100.00;104677.56;5025262;28;20029;-78
2021/10/08 04:15:29;;;;;;;19.08;10.40;;;11.10;99.90;;;9.57;100.00;104693.41;5024813;28;20411;-78
2021/10/08 04:17:55;;;;;;;22.02;10.98;;;11.10;99.90;;;9.62;100.00;104697.00;5032224;28;20099;-78
2021/10/08 04:20:24;;;;;;;23.90;11.13;;;11.20;99.90;;;9.73;100.00;104709.50;4996101;28;24394;-78
2021/10/08 04:22:50;;;;;;;18.98;9.43;;;11.10;99.90;;;9.66;100.00;104690.06;5040058;28;20055;-78
2021/10/08 04:25:16;;;;;;;20.40;10.30;;;11.10;99.90;;;9.58;100.00;104682.00;5053248;28;20074;-78
2021/10/08 04:27:42;;;;;;;24.85;9.77;;;11.00;99.90;;;9.53;100.00;104670.50;5040844;28;20063;-78
2021/10/08 04:30:08;;;;;;;18.25;9.77;;;10.40;99.90;;;9.45;100.00;104649.28;5007096;28;20336;-78
2021/10/08 04:32:34;;;;;;;21.02;10.00;;;10.90;99.90;;;9.39;100.00;104650.91;5040574;28;20070;-78
2021/10/08 04:35:00;;;;;;;23.48;10.32;;;10.90;99.90;;;9.42;100.00;104656.25;4995250;28;20055;-79
2021/10/08 04:37:27;;;;;;;24.58;9.95;;;;;;;9.37;100.00;104653.53;4964079;28;20444;-78
2021/10/08 04:39:53;;;;;;;22.65;9.48;;;10.80;99.90;;;9.32;100.00;104654.25;4999224;28;20488;-78
2021/10/08 04:42:19;;;;;;;16.92;9.52;;;10.70;99.90;;;9.29;100.00;104639.31;4974758;28;20030;-78
2021/10/08 04:44:45;;;;;;;19.00;9.90;;;10.70;99.90;;;9.32;100.00;104649.88;4963946;28;20072;-78
2021/10/08 04:47:12;;;;;;;22.27;10.60;;;10.80;99.90;;;9.48;100.00;104687.94;4960227;28;20134;-78
2021/10/08 04:49:39;;;;;;;23.48;10.90;;;11.10;99.90;;;9.59;100.00;104689.06;4983016;28;20034;-78
2021/10/08 04:52:05;;;;;;;25.63;10.73;;;11.00;99.90;;;9.58;100.00;104679.38;4953736;28;20096;-78
2021/10/08 04:54:31;;;;;;;19.65;10.30;;;11.00;99.90;;;9.53;100.00;104669.63;4971714;28;20114;-78
2021/10/08 04:56:57;;;;;;;21.95;10.35;;;10.90;99.90;;;9.44;100.00;104672.94;4955854;28;20122;-78
2021/10/08 04:59:23;;;;;;;24.52;9.90;;;10.80;99.90;;;9.36;100.00;104664.88;4958699;28;20022;-78
2021/10/08 05:01:49;;;;;;;24.58;10.65;;;10.80;99.90;;;9.26;100.00;104662.91;5002423;28;20064;-78
2021/10/08 05:04:15;;;;;;;22.05;9.77;;;10.70;99.90;;;9.17;100.00;104655.69;4981373;28;20052;-78
2021/10/08 05:06:48;;;;;;;17.52;9.40;;;10.60;99.90;;;9.11;100.00;104649.41;4932646;28;20060;-78
2021/10/08 05:09:14;;;;;;;20.92;10.02;;;10.50;99.90;;;8.99;100.00;104652.66;4994672;28;20119;-78
2021/10/08 05:11:41;;;;;;;18.65;9.43;;;10.40;99.90;;;8.94;100.00;104642.06;5006075;28;20071;-78
2021/10/08 05:14:07;;;;;;;177.13;5.40;;;10.40;99.90;;;8.87;100.00;104634.84;4995634;28;20542;-78
2021/10/08 05:16:33;;;;;;;42.20;8.05;;;10.30;99.90;;;8.80;100.00;104625.06;4984859;28;20442;-78
2021/10/08 05:19:01;;;;;;;29.27;8.25;;;10.30;99.90;;;8.76;100.00;104624.09;4994267;28;20059;-78
2021/10/08 05:21:27;;;;;;;95.95;8.50;;;10.20;99.90;;;8.72;100.00;104611.75;4996173;28;22703;-78
2021/10/08 05:23:53;;;;;;;191.55;7.63;;;10.20;99.90;;;8.66;100.00;104614.25;5010630;28;20087;-78
2021/10/08 05:26:19;;;;;;;67.22;7.25;;;10.10;99.90;;;8.62;100.00;104613.28;4998437;28;20060;-78
2021/10/08 05:28:45;;;;;;;16.58;8.35;;;10.10;99.90;;;8.58;100.00;104607.91;5012331;28;20157;-78
2021/10/08 05:31:11;;;;;;;185.02;4.30;;;10.00;99.90;;;8.55;100.00;104607.81;5004814;28;20132;-78
2021/10/08 05:33:41;;;;;;;21.52;7.75;;;10.00;99.90;;;8.49;100.00;104587.56;4993575;28;20071;-78
2021/10/08 05:36:08;;;;;;;63.67;6.35;;;;;;;8.67;100.00;104613.38;4967470;28;20064;-78
2021/10/08 05:38:34;;;;;;;42.30;7.90;;;10.10;99.90;;;8.71;100.00;104615.22;5039225;28;20071;-78
2021/10/08 05:41:00;;;;;;;28.30;10.18;;;10.20;99.90;;;8.86;100.00;104630.47;4981309;28;20519;-78
2021/10/08 05:43:27;;;;;;;67.38;9.07;;;10.30;99.90;;;8.92;100.00;104629.69;5007245;28;20485;-78
2021/10/08 05:45:57;;;;;;;23.55;10.70;;;10.40;99.90;;;8.96;100.00;104640.34;4978675;28;20509;-78
2021/10/08 05:48:23;;;;;;;31.35;9.00;;;10.40;99.90;;;8.94;100.00;104628.91;4988361;28;20055;-78
2021/10/08 05:50:49;;;;;;;48.55;8.77;;;10.40;99.90;;;8.78;100.00;104604.00;4994825;28;20074;-78
2021/10/08 05:53:15;;;;;;;30.48;8.32;;;10.20;99.90;;;8.58;100.00;104584.28;5002605;28;20066;-78
2021/10/08 05:55:41;;;;;;;53.28;8.32;;;10.10;99.90;;;8.50;100.00;104580.56;5014199;28;20051;-78
2021/10/08 05:58:07;;;;;;;96.22;9.60;;;10.00;99.90;;;8.43;100.00;104565.53;5018413;28;20063;-78
2021/10/08 06:00:37;;;;;;;16.80;9.93;;;10.00;99.90;;;8.44;100.00;104570.78;5018011;28;20067;-78
2021/10/08 06:03:04;;;;;;;21.55;10.32;;;9.90;99.90;;;8.45;100.00;104572.59;4998636;28;20060;-78
2021/10/08 06:05:38;;;;;;;21.58;9.73;;;9.90;99.90;;;8.46;100.00;104574.34;5022487;28;20074;-78
2021/10/08 06:08:06;;;;;;;20.60;10.73;;;9.90;99.90;;;8.48;100.00;104566.50;4997024;28;20051;-79
2021/10/08 06:10:32;;;;;;;22.08;10.70;;;10.00;99.90;;;8.57;100.00;104571.97;5009745;28;20504;-78
2021/10/08 06:12:59;;;;;;;18.70;9.95;;;10.00;99.90;;;8.54;100.00;104562.28;5006614;28;20121;-78
2021/10/08 06:15:25;;;;;;;16.38;9.52;;;10.00;99.90;;;8.55;100.00;104569.34;5017759;28;20133;-78
2021/10/08 06:17:52;;;;;;;27.23;11.43;;;10.10;99.90;;;8.71;100.00;104596.84;5011652;28;20100;-78
2021/10/08 06:20:18;;;;;;;21.95;10.98;;;10.20;99.90;;;8.87;100.00;104618.22;5039667;28;20036;-78
2021/10/08 06:22:47;;;;;;;27.17;12.38;;;10.30;99.90;;;8.83;100.00;104609.34;5028271;28;20067;-78
2021/10/08 06:25:13;;;;;;;30.30;11.65;;;10.30;99.90;;;8.93;100.00;104620.97;5004100;28;20017;-78
2021/10/08 06:27:40;;;;;;;20.50;11.10;;;10.40;99.90;;;9.02;100.00;104629.94;4992742;28;20545;-78
2021/10/08 06:30:11;;;;;;;20.20;11.02;;;10.50;99.90;;;9.08;100.00;104644.09;4988494;28;20093;-78
2021/10/08 06:32:40;;;;;;;21.52;11.38;;;10.50;99.90;;;9.14;100.00;104644.25;5001238;28;20507;-78
2021/10/08 06:35:07;;;;;;;23.73;11.75;;;10.60;99.90;;;9.22;100.00;104654.06;4992658;28;20059;-78
2021/10/08 06:37:33;;;;;;;24.50;12.85;;;10.80;99.90;;;9.43;100.00;104679.94;5011091;28;20103;-78
2021/10/08 06:39:59;;;;;;;25.75;12.68;;;10.90;99.90;;;9.58;100.00;104704.81;5050753;28;20734;-78
2021/10/08 06:42:26;;;;;;;28.65;13.55;;;11.10;99.90;;;9.71;100.00;104703.31;4992952;28;20521;-78
2021/10/08 06:44:53;;;;;;;29.10;14.02;;;11.20;99.90;;;9.80;100.00;104712.25;4974954;28;20054;-78
2021/10/08 06:47:20;;;;;;;34.35;13.05;;;11.30;99.90;;;9.90;100.00;104723.00;4982910;28;20052;-78
2021/10/08 06:49:47;;;;;;;29.90;12.43;;;11.40;99.90;;;9.98;100.00;104727.56;5014169;28;20575;-78
2021/10/08 06:52:13;;;;;;;31.70;13.10;;;11.40;99.90;;;10.10;100.00;104739.19;4982006;28;20041;-78
2021/10/08 06:54:40;;;;;;;29.38;13.75;;;11.60;99.90;;;10.22;100.00;104752.59;4956850;28;20032;-78
2021/10/08 06:57:06;;;;;;;34.58;14.00;;;11.70;99.90;;;10.34;100.00;104758.13;5008613;28;20052;-79
2021/10/08 06:59:36;;;;;;;34.85;14.45;;;11.80;99.90;;;10.50;100.00;104809.38;4970478;28;20067;-78
2021/10/08 07:02:02;;;;;;;31.02;13.52;;;12.00;99.90;;;10.65;100.00;104758.69;5010538;28;20055;-78
2021/10/08 07:04:28;;;;;;;27.88;13.15;;;12.20;99.90;;;10.82;100.00;104786.22;4989400;28;20134;-79
2021/10/08 07:06:55;;;;;;;29.02;14.02;;;12.30;99.90;;;11.04;100.00;104805.06;5006039;28;20025;-78
2021/10/08 07:09:21;;;;;;;31.95;14.02;;;12.50;99.90;;;11.17;100.00;104791.19;4991464;28;20066;-78
2021/10/08 07:11:47;;;;;;;27.60;14.95;;;12.60;99.90;;;11.36;100.00;104805.56;5001790;28;20049;-78
2021/10/08 07:14:13;;;;;;;31.35;14.77;;;12.80;99.90;;;11.49;100.00;104852.38;5031861;28;20033;-78
2021/10/08 07:16:39;;;;;;;41.55;16.50;;;12.90;99.90;;;11.64;100.00;104827.97;4978080;28;20083;-78
2021/10/08 07:19:11;;;;;;;34.50;16.27;;;13.00;99.90;;;11.65;100.00;104750.53;4996731;28;20108;-79
2021/10/08 07:21:45;;;;;;;35.00;15.63;;;13.20;99.90;;;11.86;100.00;104762.25;4986105;28;20040;-79
2021/10/08 07:24:11;;;;;;;33.60;13.93;;;13.20;99.90;;;11.80;100.00;104757.75;4995781;28;20052;-79
2021/10/08 07:26:38;;;;;;;31.27;15.07;;;13.20;99.90;;;11.85;100.00;104797.44;5030223;28;20017;-78
2021/10/08 07:29:05;;;;;;;28.65;15.30;;;13.30;99.90;;;11.96;100.00;104769.44;4995214;28;20159;-78
2021/10/08 07:31:38;;;;;;;32.42;15.23;;;13.30;99.90;;;12.03;100.00;104781.84;4986582;28;20158;-79
2021/10/08 07:34:04;;;;;;;26.20;14.15;;;13.40;99.90;;;12.09;100.00;104776.66;5023576;28;20032;-79
2021/10/08 07:36:30;;;;;;;26.45;14.27;;;13.50;99.90;;;12.21;100.00;104762.69;5030478;28;20037;-78
2021/10/08 07:38:56;;;;;;;31.10;14.55;;;13.50;99.90;;;12.29;100.00;104761.00;5042283;28;20136;-79
2021/10/08 07:41:23;;;;;;;24.80;14.32;;;13.60;99.90;;;12.33;100.00;104761.91;5018318;28;20492;-79
2021/10/08 07:43:50;;;;;;;27.75;15.60;;;13.80;99.90;;;12.56;100.00;104774.47;4998188;28;20085;-79
2021/10/08 07:46:17;;;;;;;30.20;15.00;;;13.90;99.90;;;12.60;100.00;104776.28;4995237;28;20139;-79
2021/10/08 07:48:43;;;;;;;28.95;15.07;;;14.00;99.90;;;12.68;100.00;104756.09;4988770;28;20028;-79
2021/10/08 07:51:09;;;;;;;30.05;14.98;;;14.10;99.90;;;12.86;100.00;104729.78;5025216;28;20037;-79
2021/10/08 07:53:35;;;;;;;28.27;14.75;;;14.10;99.90;;;12.75;100.00;104707.66;4987978;28;20372;-79
2021/10/08 07:56:03;;;;;;;26.95;14.75;;;14.20;99.90;;;13.04;100.00;104749.31;5018445;28;20074;-79
2021/10/08 07:58:29;;;;;;;27.05;15.30;;;14.30;99.90;;;12.96;100.00;104745.72;5022822;28;20035;-79
2021/10/08 08:01:00;;;;;;;27.25;14.85;;;14.30;99.90;;;13.28;100.00;104741.59;5039877;28;20025;-78
2021/10/08 08:03:28;;;;;;;23.30;13.82;;;14.40;99.90;;;13.07;100.00;104685.84;5016420;28;20032;-79
2021/10/08 08:05:54;;;;;;;28.30;14.13;;;14.40;99.90;;;13.09;100.00;104662.94;4998443;28;20035;-78
2021/10/08 08:08:23;;;;;;;25.92;14.93;;;14.50;99.90;;;13.28;100.00;104690.34;5019096;28;20593;-79
2021/10/08 08:10:49;;;;;;;22.58;13.57;;;14.60;99.90;;;13.29;100.00;104671.88;4965247;28;21574;-79
2021/10/08 08:13:15;;;;;;;21.88;12.65;;;14.60;99.90;;;13.28;100.00;104679.75;4965035;28;20041;-79
2021/10/08 08:15:41;;;;;;;21.15;12.70;;;14.70;99.90;;;13.33;100.00;104660.41;5017672;28;20164;-79
2021/10/08 08:18:08;;;;;;;22.63;12.18;;;14.60;99.90;;;13.43;100.00;104671.91;4984831;28;20080;-78
2021/10/08 08:20:34;;;;;;;22.90;13.30;;;14.70;99.90;;;13.44;100.00;104665.75;5006605;28;20048;-79
2021/10/08 08:23:00;;;;;;;23.38;12.32;;;14.90;99.90;;;13.49;100.00;104671.06;4957101;28;20030;-79
2021/10/08 08:25:28;;;;;;;20.65;11.25;;;14.80;99.90;;;13.54;100.00;104672.88;4921261;28;20053;-79
2021/10/08 08:27:54;;;;;;;23.88;13.48;;;14.90;99.90;;;13.63;100.00;104649.91;4961598;28;20072;-79
2021/10/08 08:30:20;;;;;;;21.67;12.23;;;15.00;99.90;;;13.84;100.00;104691.50;4957076;28;20030;-79
2021/10/08 08:32:46;;;;;;;20.88;11.70;;;15.10;99.90;;;13.78;100.00;104646.44;4981806;28;20021;-79
2021/10/08 08:35:12;;;;;;;23.73;12.60;;;15.00;99.90;;;13.79;100.00;104650.88;4996707;28;20029;-79
2021/10/08 08:37:38;;;;;;;19.83;11.18;;;15.10;99.90;;;13.81;100.00;104649.09;4966418;28;20112;-79
2021/10/08 08:40:07;;;;;;;20.40;12.18;;;15.00;99.90;;;13.59;100.00;104627.88;4980261;28;20077;-79
2021/10/08 08:42:34;;;;;;;19.40;11.93;;;14.90;99.90;;;13.69;100.00;104634.06;4990771;28;20040;-79
2021/10/08 08:45:01;;;;;;;21.77;13.18;;;14.90;99.90;;;13.47;100.00;104599.56;5007595;28;20018;-78
2021/10/08 08:48:07;;;;;;;22.80;11.98;;;14.90;99.90;;;13.51;100.00;104627.81;5015883;28;20042;-79
2021/10/08 08:50:45;;;;;;;22.25;12.93;;;15.00;99.90;;;13.71;100.00;104658.78;5041360;28;20033;-79
2021/10/08 08:53:14;;;;;;;22.00;12.48;;;15.00;99.90;;;13.88;100.00;104657.06;5009162;28;21204;-79
2021/10/08 08:55:40;;;;;;;24.30;13.60;;;15.00;99.90;;;13.82;100.00;104632.31;4995572;28;20033;-79
2021/10/08 08:58:44;;;;;;;26.63;14.38;;;15.00;99.90;;;13.65;100.00;104608.44;4975834;28;20112;-79
2021/10/08 09:01:17;;;;;;;30.83;13.27;;;15.10;99.90;;;13.91;100.00;104641.19;5003011;28;20028;-79
2021/10/08 09:04:08;;;;;;;20.33;13.25;;;15.20;99.90;;;14.06;100.00;104645.63;4975991;28;20381;-79
2021/10/08 09:06:41;;;;;;;22.67;12.48;;;15.20;99.90;;;13.92;100.00;104604.97;4963145;28;20076;-78
2021/10/08 09:09:20;;;;;;;22.30;12.98;;;15.30;99.90;;;14.27;100.00;104649.16;4983850;28;20489;-79
2021/10/08 09:11:55;;;;;;;18.90;11.48;;;15.30;99.90;;;14.18;100.00;104612.03;4978422;28;20037;-78
2021/10/08 09:14:41;;;;;;;20.98;12.43;;;15.30;99.90;;;14.10;100.00;104601.44;4984981;28;20028;-79
2021/10/08 09:17:18;;;;;;;21.45;12.45;;;15.20;99.90;;;13.85;100.00;104564.34;5000686;28;20080;-78
2021/10/08 09:20:03;;;;;;;21.48;12.88;;;15.10;99.90;;;13.80;100.00;104578.44;4982671;28;20513;-78
2021/10/08 09:22:42;;;;;;;20.50;11.98;;;15.10;99.90;;;13.83;100.00;104582.00;4979924;28;20048;-78
2021/10/08 09:25:35;;;;;;;22.35;13.75;;;15.10;99.90;;;13.79;100.00;104590.81;4992399;28;20298;-78
2021/10/08 09:28:26;;;;;;;23.77;13.30;;;15.10;99.90;;;13.84;100.00;104573.16;4958229;28;20037;-78
2021/10/08 09:31:08;;;;;;;24.60;13.40;;;15.10;99.90;;;13.82;100.00;104576.69;4981776;28;20036;-78
2021/10/08 09:33:45;;;;;;;25.45;13.48;;;15.10;99.90;;;13.82;100.00;104847.81;5020499;28;20029;-79
2021/10/08 09:36:43;;;;;;;21.00;12.52;;;15.10;99.90;;;13.73;100.00;104752.38;4974599;28;20116;-78
2021/10/08 09:39:44;;;;;;;22.23;12.75;;;15.00;99.90;;;13.56;100.00;104674.63;4962398;28;20485;-78
2021/10/08 09:42:13;;;;;;;22.38;12.80;;;14.90;99.90;;;13.60;100.00;104677.28;4961655;28;20032;-78
2021/10/08 09:44:56;;;;;;;27.38;14.80;;;14.90;99.90;;;13.54;100.00;104648.13;4958721;28;20087;-78
2021/10/08 09:47:42;;;;;;;23.63;13.98;;;14.90;99.90;;;13.68;100.00;104662.31;4971613;28;20067;-78
2021/10/08 09:50:25;;;;;;;26.98;13.82;;;15.00;99.90;;;13.75;100.00;104656.13;4974715;28;20044;-78
2021/10/08 09:53:29;;;;;;;21.05;12.57;;;15.00;99.90;;;13.77;100.00;104620.84;4943487;28;20041;-78
2021/10/08 09:57:07;;;;;;;21.77;12.75;;;15.10;99.90;;;13.64;100.00;104585.50;4986997;28;20053;-78
2021/10/08 09:59:56;;;;;;;21.42;12.48;;;14.90;99.90;;;13.60;100.00;104581.06;4978248;28;20157;-78
2021/10/08 10:02:30;;;;;;;20.13;12.25;;;14.80;99.90;;;13.46;100.00;104570.47;4976354;28;20019;-78
2021/10/08 10:05:09;;;;;;;23.20;13.00;;;14.80;99.90;;;13.47;100.00;104565.16;4964422;28;20036;-78
2021/10/08 10:08:06;;;;;;;25.48;12.55;;;14.90;99.90;;;13.63;100.00;104579.31;4947823;28;20404;-78
2021/10/08 10:10:46;;;;;;;19.63;11.80;;;14.80;99.90;;;13.38;100.00;104538.66;4948165;28;20044;-78
2021/10/08 10:13:41;;;;;;;20.23;12.60;;;14.70;99.90;;;13.45;100.00;104556.31;4938699;28;20022;-78